createdAt,value
2023-04-02T00:01:19.451Z,3.16
2023-04-02T00:04:22.766Z,1.66
2023-04-02T00:06:55.345Z,0.72
2023-04-02T00:09:34.289Z,0.80
2023-04-02T00:12:19.842Z,0.60
2023-04-02T00:14:58.587Z,0.54
2023-04-02T00:17:29.208Z,0.72
2023-04-02T00:20:06.506Z,0.80
2023-04-02T00:22:36.555Z,0.64
2023-04-02T00:25:16.778Z,0.55
2023-04-02T00:27:47.046Z,0.63
2023-04-02T00:30:17.337Z,0.54
2023-04-02T00:32:49.204Z,0.69
2023-04-02T00:35:26.284Z,0.55
2023-04-02T00:37:57.152Z,0.52
2023-04-02T00:40:33.285Z,0.47
2023-04-02T00:43:04.592Z,0.50
2023-04-02T00:45:39.980Z,0.53
2023-04-02T00:48:29.706Z,0.43
2023-04-02T00:51:04.142Z,0.53
2023-04-02T00:53:35.553Z,0.51
2023-04-02T00:56:19.512Z,0.58
2023-04-02T00:58:56.038Z,0.64
2023-04-02T01:01:28.750Z,0.67
2023-04-02T01:04:03.899Z,0.53
2023-04-02T01:06:38.735Z,0.49
2023-04-02T01:09:26.713Z,0.73
2023-04-02T01:12:26.692Z,2.46
2023-04-02T01:15:12.067Z,0.77
2023-04-02T01:18:09.803Z,0.82
2023-04-02T01:21:02.042Z,1.02
2023-04-02T01:23:42.198Z,0.52
2023-04-02T01:26:26.434Z,0.63
2023-04-02T01:29:12.006Z,0.59
2023-04-02T01:31:44.309Z,0.60
2023-04-02T01:34:18.700Z,0.51
2023-04-02T01:37:11.880Z,0.50
2023-04-02T01:40:11.709Z,0.45
2023-04-02T01:42:55.216Z,0.52
2023-04-02T01:45:29.266Z,0.58
2023-04-02T01:48:00.001Z,0.58
2023-04-02T01:50:37.207Z,0.59
2023-04-02T01:53:11.503Z,0.59
2023-04-02T01:55:47.474Z,3.45
2023-04-02T01:58:25.288Z,3.75
2023-04-02T02:01:06.121Z,0.86
2023-04-02T02:03:37.911Z,0.59
2023-04-02T02:06:09.590Z,0.46
2023-04-02T02:08:44.022Z,0.49
2023-04-02T02:11:18.477Z,0.66
2023-04-02T02:13:50.338Z,0.58
2023-04-02T02:16:24.408Z,0.57
2023-04-02T02:18:59.148Z,0.56
2023-04-02T02:21:41.609Z,0.64
2023-04-02T02:24:22.777Z,0.49
2023-04-02T02:27:05.035Z,0.54
2023-04-02T02:29:41.179Z,0.60
2023-04-02T02:32:17.441Z,0.47
2023-04-02T02:35:03.470Z,0.44
2023-04-02T02:37:43.117Z,0.51
2023-04-02T02:40:23.281Z,0.50
2023-04-02T02:43:00.132Z,0.42
2023-04-02T02:45:38.061Z,0.53
2023-04-02T02:48:17.890Z,0.54
2023-04-02T02:50:48.650Z,0.47
2023-04-02T02:53:23.342Z,0.51
2023-04-02T02:56:02.134Z,0.47
2023-04-02T02:58:39.066Z,0.55
2023-04-02T03:01:20.160Z,0.48
2023-04-02T03:03:57.494Z,0.52
2023-04-02T03:06:29.054Z,0.59
2023-04-02T03:09:20.914Z,0.55
2023-04-02T03:11:59.049Z,0.48
2023-04-02T03:14:37.735Z,0.45
2023-04-02T03:17:21.046Z,0.60
2023-04-02T03:20:01.850Z,0.67
2023-04-02T03:22:39.779Z,0.43
2023-04-02T03:25:27.750Z,0.49
2023-04-02T03:28:05.605Z,0.48
2023-04-02T03:30:45.362Z,0.59
2023-04-02T03:33:24.386Z,0.40
2023-04-02T03:36:06.732Z,0.42
2023-04-02T03:38:46.467Z,0.51
2023-04-02T03:41:24.229Z,0.55
2023-04-02T03:43:59.342Z,0.46
2023-04-02T03:46:38.378Z,0.56
2023-04-02T03:49:16.960Z,0.41
2023-04-02T03:51:57.850Z,0.54
2023-04-02T03:54:28.444Z,0.42
2023-04-02T03:56:59.988Z,0.61
2023-04-02T03:59:41.622Z,0.56
2023-04-02T04:02:28.347Z,0.43
2023-04-02T04:05:00.951Z,0.59
2023-04-02T04:07:39.781Z,0.54
2023-04-02T04:10:19.791Z,0.67
2023-04-02T04:12:53.307Z,0.59
2023-04-02T04:15:32.151Z,0.74
2023-04-02T04:18:11.046Z,0.59
2023-04-02T04:20:56.667Z,0.51
2023-04-02T04:23:37.538Z,0.50
2023-04-02T04:26:25.409Z,0.70
2023-04-02T04:29:16.529Z,0.48
2023-04-02T04:31:51.059Z,0.45
2023-04-02T04:34:31.983Z,0.40
2023-04-02T04:37:08.099Z,0.66
2023-04-02T04:39:52.507Z,0.76
2023-04-02T04:42:27.175Z,0.58
2023-04-02T04:45:06.180Z,0.70
2023-04-02T04:47:42.400Z,0.81
2023-04-02T04:50:20.850Z,0.62
2023-04-02T04:52:51.655Z,0.49
2023-04-02T04:55:33.099Z,0.58
2023-04-02T04:58:14.388Z,0.51
2023-04-02T05:01:02.690Z,0.59
2023-04-02T05:03:41.176Z,0.54
2023-04-02T05:06:18.957Z,0.49
2023-04-02T05:08:54.541Z,0.64
2023-04-02T05:11:35.182Z,0.62
2023-04-02T05:14:19.402Z,0.59
2023-04-02T05:16:59.620Z,0.47
2023-04-02T05:19:38.284Z,0.55
2023-04-02T05:22:22.048Z,0.56
2023-04-02T05:25:05.874Z,0.53
2023-04-02T05:27:49.342Z,0.52
2023-04-02T05:30:56.799Z,0.43
2023-04-02T05:33:31.046Z,0.64
2023-04-02T05:36:08.850Z,0.47
2023-04-02T05:38:49.220Z,0.62
2023-04-02T05:41:31.387Z,0.64
2023-04-02T05:44:18.687Z,0.61
2023-04-02T05:46:57.600Z,0.42
2023-04-02T05:49:39.239Z,0.62
2023-04-02T05:52:20.586Z,0.64
2023-04-02T05:54:57.827Z,0.58
2023-04-02T05:57:45.850Z,0.55
2023-04-02T06:00:45.781Z,0.53
2023-04-02T06:03:28.533Z,0.67
2023-04-02T06:06:07.196Z,0.52
2023-04-02T06:08:45.861Z,0.79
2023-04-02T06:11:25.220Z,0.82
2023-04-02T06:13:56.658Z,0.52
2023-04-02T06:16:36.957Z,0.48
2023-04-02T06:19:18.271Z,0.63
2023-04-02T06:24:28.961Z,0.50
2023-04-02T06:27:08.122Z,0.69
2023-04-02T06:29:44.146Z,0.57
2023-04-02T06:32:27.141Z,0.62
2023-04-02T06:34:58.268Z,0.60
2023-04-02T06:37:36.175Z,0.63
2023-04-02T06:40:44.692Z,0.90
2023-04-02T06:43:36.293Z,0.81
2023-04-02T06:46:46.511Z,0.76
2023-04-02T06:49:28.174Z,0.85
2023-04-02T06:52:11.556Z,0.81
2023-04-02T06:54:41.850Z,0.79
2023-04-02T06:57:16.195Z,0.89
2023-04-02T06:59:48.881Z,0.82
2023-04-02T07:02:37.025Z,0.76
2023-04-02T07:05:13.094Z,0.98
2023-04-02T07:07:48.358Z,0.86
2023-04-02T07:10:20.500Z,0.83
2023-04-02T07:12:51.661Z,0.76
2023-04-02T07:15:25.940Z,0.86
2023-04-02T07:17:59.367Z,0.69
2023-04-02T07:20:37.650Z,0.81
2023-04-02T07:23:10.833Z,0.87
2023-04-02T07:25:41.137Z,0.67
2023-04-02T07:28:11.169Z,0.73
2023-04-02T07:30:41.225Z,0.74
2023-04-02T07:33:16.772Z,0.63
2023-04-02T07:35:50.561Z,0.71
2023-04-02T07:38:21.946Z,0.82
2023-04-02T07:40:52.148Z,0.88
2023-04-02T07:43:23.272Z,1.51
2023-04-02T07:45:53.689Z,2.55
2023-04-02T07:48:23.788Z,1.38
2023-04-02T07:50:56.645Z,0.93
2023-04-02T07:53:32.384Z,0.94
2023-04-02T07:56:04.189Z,0.82
2023-04-02T07:58:36.339Z,0.95
2023-04-02T08:01:06.307Z,0.91
2023-04-02T08:03:36.483Z,1.06
2023-04-02T08:06:09.540Z,0.97
2023-04-02T08:08:39.603Z,1.24
2023-04-02T08:11:09.823Z,1.32
2023-04-02T08:13:40.695Z,1.24
2023-04-02T08:16:11.849Z,2.07
2023-04-02T08:18:42.402Z,1.50
2023-04-02T08:21:16.482Z,1.15
2023-04-02T08:23:47.358Z,1.30
2023-04-02T08:26:21.291Z,0.93
2023-04-02T08:28:51.704Z,1.05
2023-04-02T08:31:21.909Z,0.95
2023-04-02T08:33:51.871Z,1.06
2023-04-02T08:36:32.037Z,1.02
2023-04-02T08:39:02.180Z,0.95
2023-04-02T08:41:33.387Z,2.30
2023-04-02T08:44:18.908Z,2.29
2023-04-02T08:46:55.108Z,1.08
2023-04-02T08:49:34.003Z,0.85
2023-04-02T08:52:06.916Z,0.82
2023-04-02T08:54:44.081Z,0.91
2023-04-02T08:57:29.253Z,0.93
2023-04-02T09:00:10.945Z,0.85
2023-04-02T09:02:47.026Z,0.84
2023-04-02T09:05:25.046Z,0.86
2023-04-02T09:08:02.299Z,0.86
2023-04-02T09:10:42.635Z,0.90
2023-04-02T09:13:23.402Z,0.77
2023-04-02T09:15:59.263Z,0.73
2023-04-02T09:18:32.851Z,0.86
2023-04-02T09:21:17.545Z,0.96
2023-04-02T09:23:50.901Z,0.95
2023-04-02T09:26:26.006Z,1.25
2023-04-02T09:29:08.402Z,1.18
2023-04-02T09:31:46.138Z,0.80
2023-04-02T09:34:35.054Z,0.92
2023-04-02T09:37:12.039Z,0.95
2023-04-02T09:39:45.076Z,2.07
2023-04-02T09:42:38.298Z,2.60
2023-04-02T09:45:17.896Z,1.33
2023-04-02T09:47:48.076Z,0.75
2023-04-02T09:50:29.772Z,0.79
2023-04-02T09:53:00.253Z,0.74
2023-04-02T09:55:34.940Z,0.66
2023-04-02T09:58:16.703Z,0.75
2023-04-02T10:00:55.356Z,0.69
2023-04-02T10:03:29.714Z,0.75
2023-04-02T10:06:12.134Z,0.70
2023-04-02T10:08:44.676Z,1.76
2023-04-02T10:11:24.314Z,3.06
2023-04-02T10:14:02.273Z,1.17
2023-04-02T10:16:37.981Z,1.60
2023-04-02T10:19:18.586Z,1.83
2023-04-02T10:21:52.961Z,0.87
2023-04-02T10:24:23.378Z,0.78
2023-04-02T10:27:10.541Z,0.72
2023-04-02T10:30:06.084Z,0.88
2023-04-02T10:32:45.860Z,0.64
2023-04-02T10:35:36.296Z,0.72
2023-04-02T10:38:34.169Z,0.82
2023-04-02T10:41:19.008Z,1.06
2023-04-02T10:44:13.168Z,0.90
2023-04-02T10:47:05.281Z,0.55
2023-04-02T10:49:44.859Z,0.44
2023-04-02T10:52:22.901Z,0.36
2023-04-02T10:54:55.956Z,0.45
2023-04-02T10:57:37.032Z,0.50
2023-04-02T11:00:22.677Z,0.42
2023-04-02T11:02:59.316Z,0.30
2023-04-02T11:05:40.508Z,0.40
2023-04-02T11:08:21.539Z,0.54
2023-04-02T11:10:58.487Z,1.13
2023-04-02T11:13:35.897Z,0.58
2023-04-02T11:16:10.112Z,1.28
2023-04-02T11:18:40.226Z,2.21
2023-04-02T11:21:11.685Z,1.24
2023-04-02T11:23:59.329Z,0.53
2023-04-02T11:26:47.522Z,0.44
2023-04-02T11:29:26.375Z,0.51
2023-04-02T11:32:29.995Z,2.34
2023-04-02T11:35:07.425Z,1.75
2023-04-02T11:37:41.222Z,0.66
2023-04-02T11:40:41.623Z,0.65
2023-04-02T11:43:41.648Z,0.74
2023-04-02T11:46:41.835Z,0.72
2023-04-02T11:49:59.199Z,0.59
2023-04-02T11:52:34.039Z,0.82
2023-04-02T11:55:19.409Z,3.02
2023-04-02T11:58:21.265Z,2.79
2023-04-02T12:01:30.232Z,1.74
2023-04-02T12:04:53.127Z,1.07
2023-04-02T12:07:52.459Z,1.41
2023-04-02T12:10:25.672Z,1.11
2023-04-02T12:12:55.857Z,0.80
2023-04-02T12:15:37.240Z,0.59
2023-04-02T12:18:18.739Z,0.77
2023-04-02T12:20:55.197Z,0.72
2023-04-02T12:23:32.727Z,0.59
2023-04-02T12:26:06.834Z,0.63
2023-04-02T12:28:38.327Z,0.58
2023-04-02T12:31:17.887Z,0.49
2023-04-02T12:33:48.998Z,0.43
2023-04-02T12:36:23.859Z,0.47
2023-04-02T12:38:58.389Z,0.51
2023-04-02T12:41:32.308Z,0.51
2023-04-02T12:44:04.845Z,0.58
2023-04-02T12:46:37.774Z,0.53
2023-04-02T12:49:10.492Z,0.61
2023-04-02T12:51:41.675Z,0.60
2023-04-02T12:54:20.959Z,0.58
2023-04-02T12:56:52.548Z,0.61
2023-04-02T12:59:32.311Z,0.59
2023-04-02T13:02:04.462Z,0.53
2023-04-02T13:04:34.613Z,0.61
2023-04-02T13:07:05.116Z,0.67
2023-04-02T13:09:47.721Z,0.63
2023-04-02T13:12:35.595Z,0.58
2023-04-02T13:15:08.750Z,0.67
2023-04-02T13:17:44.935Z,0.74
2023-04-02T13:20:32.484Z,0.57
2023-04-02T13:23:05.607Z,0.72
2023-04-02T13:25:40.186Z,0.71
2023-04-02T13:28:12.911Z,0.84
2023-04-02T13:30:43.045Z,0.74
2023-04-02T13:33:13.418Z,1.04
2023-04-02T13:35:43.734Z,1.21
2023-04-02T13:38:14.222Z,1.21
2023-04-02T13:40:47.161Z,1.07
2023-04-02T13:43:22.024Z,1.33
2023-04-02T13:45:55.894Z,1.51
2023-04-02T13:48:29.220Z,1.27
2023-04-02T13:50:59.164Z,1.19
2023-04-02T13:53:36.744Z,1.41
2023-04-02T13:56:10.273Z,1.74
2023-04-02T13:58:40.887Z,1.88
2023-04-02T14:01:12.247Z,1.78
2023-04-02T14:03:44.023Z,1.29
2023-04-02T14:06:22.960Z,1.01
2023-04-02T14:09:05.839Z,0.91
2023-04-02T14:11:53.727Z,0.97
2023-04-02T14:14:45.788Z,0.99
2023-04-02T14:17:28.418Z,0.94
2023-04-02T14:20:18.224Z,0.84
2023-04-02T14:23:06.486Z,0.91
2023-04-02T14:25:51.502Z,1.06
2023-04-02T14:28:38.272Z,1.43
2023-04-02T14:31:21.610Z,1.29
2023-04-02T14:34:05.492Z,1.18
2023-04-02T14:36:56.545Z,0.92
2023-04-02T14:39:40.977Z,1.06
2023-04-02T14:42:18.936Z,0.99
2023-04-02T14:45:01.982Z,0.87
2023-04-02T14:47:40.099Z,1.16
2023-04-02T14:50:16.861Z,1.24
2023-04-02T14:52:54.018Z,0.82
2023-04-02T14:55:36.525Z,0.74
2023-04-02T14:58:13.531Z,0.67
2023-04-02T15:00:54.817Z,0.47
2023-04-02T15:03:28.118Z,0.56
2023-04-02T15:06:03.153Z,0.43
2023-04-02T15:08:39.385Z,0.57
2023-04-02T15:11:18.227Z,0.68
2023-04-02T15:13:56.346Z,0.71
2023-04-02T15:16:29.769Z,0.63
2023-04-02T15:19:02.838Z,0.61
2023-04-02T15:21:57.552Z,0.55
2023-04-02T15:24:37.948Z,0.75
2023-04-02T15:27:26.202Z,1.06
2023-04-02T15:30:06.468Z,1.70
2023-04-02T15:32:43.713Z,1.87
2023-04-02T15:35:27.980Z,1.13
2023-04-02T15:38:05.752Z,1.37
2023-04-02T15:40:48.855Z,1.76
2023-04-02T15:43:27.737Z,1.16
2023-04-02T15:46:15.686Z,1.29
2023-04-02T15:49:16.310Z,1.45
2023-04-02T15:52:08.489Z,1.47
2023-04-02T15:54:58.737Z,1.98
2023-04-02T15:57:58.757Z,1.16
2023-04-02T16:00:31.466Z,0.91
2023-04-02T16:03:47.933Z,0.91
2023-04-02T16:06:30.145Z,0.98
2023-04-02T16:09:10.594Z,1.34
2023-04-02T16:11:40.679Z,1.21
2023-04-02T16:14:25.374Z,1.36
2023-04-02T16:17:08.070Z,1.87
2023-04-02T16:19:50.571Z,1.68
2023-04-02T16:22:28.459Z,1.47
2023-04-02T16:25:04.337Z,1.34
2023-04-02T16:27:41.210Z,1.39
2023-04-02T16:30:44.042Z,1.62
2023-04-02T16:33:28.697Z,1.60
2023-04-02T16:36:24.307Z,1.94
2023-04-02T16:39:05.058Z,1.65
2023-04-02T16:41:50.867Z,1.83
2023-04-02T16:44:36.352Z,1.78
2023-04-02T16:47:24.978Z,2.10
2023-04-02T16:50:03.779Z,3.36
2023-04-02T16:52:50.618Z,3.85
2023-04-02T16:55:37.744Z,4.48
2023-04-02T16:58:26.393Z,3.84
2023-04-02T17:01:02.554Z,4.64
2023-04-02T17:03:53.878Z,3.73
2023-04-02T17:06:41.810Z,4.23
2023-04-02T17:09:32.476Z,3.88
2023-04-02T17:12:17.518Z,2.40
2023-04-02T17:14:56.256Z,2.40
2023-04-02T17:17:28.713Z,2.77
2023-04-02T17:20:02.881Z,2.52
2023-04-02T17:22:34.836Z,4.29
2023-04-02T17:25:08.403Z,6.71
2023-04-02T17:27:46.367Z,6.99
2023-04-02T17:30:21.387Z,4.48
2023-04-02T17:32:51.894Z,3.68
2023-04-02T17:35:34.918Z,3.35
2023-04-02T17:38:16.885Z,3.83
2023-04-02T17:41:02.279Z,4.86
2023-04-02T17:43:48.302Z,5.43
2023-04-02T17:46:30.070Z,7.21
2023-04-02T17:49:11.307Z,5.77
2023-04-02T17:51:46.976Z,6.49
2023-04-02T17:54:34.006Z,5.49
2023-04-02T17:57:26.803Z,4.47
2023-04-02T18:00:17.301Z,4.35
2023-04-02T18:03:12.768Z,4.06
2023-04-02T18:05:53.308Z,4.25
2023-04-02T18:08:34.261Z,4.64
2023-04-02T18:11:13.330Z,3.99
2023-04-02T18:13:51.869Z,4.06
2023-04-02T18:16:44.416Z,3.92
2023-04-02T18:19:26.025Z,4.13
2023-04-02T18:22:10.866Z,4.95
2023-04-02T18:24:55.347Z,5.15
2023-04-02T18:27:56.836Z,5.11
2023-04-02T18:30:34.644Z,5.27
2023-04-02T18:33:38.520Z,5.29
2023-04-02T18:36:23.113Z,6.31
2023-04-02T18:39:05.173Z,6.02
2023-04-02T18:41:49.135Z,7.02
2023-04-02T18:44:36.967Z,6.70
2023-04-02T18:47:20.096Z,6.07
2023-04-02T18:50:13.858Z,5.87
2023-04-02T18:52:44.598Z,5.80
2023-04-02T18:55:21.642Z,7.09
2023-04-02T18:57:55.990Z,7.59
2023-04-02T19:00:33.980Z,6.27
2023-04-02T19:03:13.109Z,6.87
2023-04-02T19:05:54.105Z,6.91
2023-04-02T19:08:32.115Z,7.25
2023-04-02T19:11:07.114Z,7.14
2023-04-02T19:13:37.817Z,7.41
2023-04-02T19:16:43.906Z,7.59
2023-04-02T19:19:23.006Z,7.49
2023-04-02T19:22:14.033Z,8.00
2023-04-02T19:25:01.322Z,7.50
2023-04-02T19:27:39.877Z,7.77
2023-04-02T19:30:35.109Z,6.51
2023-04-02T19:33:20.996Z,5.82
2023-04-02T19:36:00.293Z,5.33
2023-04-02T19:38:52.378Z,5.18
2023-04-02T19:41:33.139Z,5.13
2023-04-02T19:44:05.125Z,4.65
2023-04-02T19:46:35.712Z,4.74
2023-04-02T19:49:12.726Z,4.69
2023-04-02T19:51:43.726Z,4.70
2023-04-02T19:54:16.551Z,4.86
2023-04-02T19:56:47.712Z,4.56
2023-04-02T19:59:18.955Z,4.92
2023-04-02T20:01:50.108Z,4.88
2023-04-02T20:04:23.471Z,4.91
2023-04-02T20:06:54.525Z,5.48
2023-04-02T20:09:27.888Z,5.22
2023-04-02T20:12:01.217Z,5.25
2023-04-02T20:14:31.229Z,5.53
2023-04-02T20:17:02.143Z,5.65
2023-04-02T20:19:32.314Z,5.80
2023-04-02T20:22:02.902Z,5.68
2023-04-02T20:24:36.743Z,5.88
2023-04-02T20:27:07.010Z,6.32
2023-04-02T20:29:37.148Z,6.37
2023-04-02T20:32:07.594Z,6.26
2023-04-02T20:34:38.712Z,6.25
2023-04-02T20:37:08.774Z,6.85
2023-04-02T20:39:41.983Z,6.78
2023-04-02T20:42:13.459Z,5.84
2023-04-02T20:44:43.679Z,5.77
2023-04-02T20:47:13.621Z,5.75
2023-04-02T20:49:44.001Z,5.64
2023-04-02T20:52:14.104Z,5.38
2023-04-02T20:54:46.896Z,5.64
2023-04-02T20:57:19.769Z,5.83
2023-04-02T20:59:55.148Z,6.09
2023-04-02T21:02:25.461Z,5.61
2023-04-02T21:04:56.559Z,5.97
2023-04-02T21:07:27.141Z,5.56
2023-04-02T21:09:59.936Z,5.79
2023-04-02T21:12:31.037Z,6.08
2023-04-02T21:15:02.749Z,5.65
2023-04-02T21:17:33.718Z,5.86
2023-04-02T21:20:05.616Z,8.18
2023-04-02T21:22:37.392Z,6.92
2023-04-02T21:25:11.517Z,6.22
2023-04-02T21:27:43.254Z,5.79
2023-04-02T21:30:17.216Z,6.08
2023-04-02T21:32:47.862Z,6.40
2023-04-02T21:35:20.243Z,6.16
2023-04-02T21:37:56.283Z,6.11
2023-04-02T21:40:33.320Z,6.19
2023-04-02T21:43:03.597Z,6.57
2023-04-02T21:45:33.764Z,7.04
2023-04-02T21:48:03.933Z,7.06
2023-04-02T21:50:34.179Z,6.91
2023-04-02T21:53:04.357Z,7.00
2023-04-02T21:55:36.934Z,7.02
2023-04-02T21:58:07.307Z,7.50
2023-04-02T22:00:37.720Z,7.59
2023-04-02T22:03:13.577Z,7.61
2023-04-02T22:05:46.545Z,7.14
2023-04-02T22:08:16.537Z,7.72
2023-04-02T22:10:49.314Z,8.16
2023-04-02T22:13:19.310Z,8.20
2023-04-02T22:15:49.233Z,7.17
2023-04-02T22:18:19.478Z,7.77
2023-04-02T22:20:49.512Z,7.54
2023-04-02T22:23:20.592Z,8.63
2023-04-02T22:25:53.334Z,9.34
2023-04-02T22:28:24.396Z,9.49
2023-04-02T22:30:54.647Z,9.03
2023-04-02T22:33:27.416Z,8.41
2023-04-02T22:35:57.372Z,8.01
2023-04-02T22:38:27.880Z,8.38
2023-04-02T22:41:10.027Z,7.43
2023-04-02T22:43:40.786Z,8.13
2023-04-02T22:46:14.023Z,8.17
2023-04-02T22:48:45.298Z,7.81
2023-04-02T22:51:17.905Z,7.69
2023-04-02T22:53:48.404Z,8.28
2023-04-02T22:56:24.449Z,7.55
2023-04-02T22:58:54.697Z,8.20
2023-04-02T23:01:28.967Z,8.32
2023-04-02T23:03:59.386Z,7.87
2023-04-02T23:06:30.242Z,7.81
2023-04-02T23:09:00.774Z,8.28
2023-04-02T23:11:33.462Z,8.19
2023-04-02T23:14:03.468Z,7.81
2023-04-02T23:16:33.578Z,8.01
2023-04-02T23:19:04.056Z,8.16
2023-04-02T23:21:34.037Z,8.17
2023-04-02T23:24:04.085Z,8.02
2023-04-02T23:26:36.700Z,7.88
2023-04-02T23:29:06.977Z,8.25
2023-04-02T23:31:37.411Z,8.08
2023-04-02T23:34:07.422Z,7.65
2023-04-02T23:36:38.227Z,7.67
2023-04-02T23:39:10.918Z,7.78
2023-04-02T23:41:45.443Z,8.04
2023-04-02T23:44:15.647Z,7.98
2023-04-02T23:46:45.977Z,8.00
2023-04-02T23:49:16.670Z,8.23
2023-04-02T23:51:46.793Z,7.80
2023-04-02T23:54:17.855Z,7.40
2023-04-02T23:56:50.628Z,7.59
2023-04-02T23:59:20.709Z,8.14
